Time;durP1;ratioP1;P1;durP2;ratioP2;P2;SDS_P1;SDS_P2;PMS_P1;PMS_P2;Temp;Humidity;BMP_temperature;BMP_pressure;BME280_temperature;BME280_humidity;BME280_pressure;Samples;Min_cycle;Max_cycle;Signal;HPM_P1;HPM_P2
2023/12/04 00:01:00;451460.00;1.50;778.29;0.00;0.00;0.62;;;;;5.80;1.00;;;;;;2276327;61;1422;-84
2023/12/04 00:03:27;456130.00;1.52;786.33;0.00;0.00;0.62;;;;;5.30;1.00;;;;;;2276373;61;2004;-86
2023/12/04 00:05:54;294495.00;0.98;508.46;0.00;0.00;0.62;;;;;5.00;1.00;;;;;;2276294;61;1321;-85
2023/12/04 00:08:21;182194.00;0.61;315.27;0.00;0.00;0.62;;;;;5.40;1.00;;;;;;2276357;61;1067;-88
2023/12/04 00:10:47;310286.00;1.03;535.60;0.00;0.00;0.62;;;;;6.10;1.00;;;;;;2276316;61;2212;-84
2023/12/04 00:13:15;413404.00;1.38;712.85;0.00;0.00;0.62;;;;;6.10;1.00;;;;;;2276367;61;1060;-86
2023/12/04 00:15:42;222016.00;0.74;383.81;0.00;0.00;0.62;;;;;6.20;1.00;;;;;;2276301;61;1269;-86
2023/12/04 00:18:09;1532678.00;5.11;2704.76;37780.00;0.13;66.05;;;;;6.00;1.00;;;;;;2276405;61;1110;-86
2023/12/04 00:20:38;1040501.00;3.47;1804.34;56532.00;0.19;98.48;;;;;6.20;1.00;;;;;;2276385;61;1118;-85
2023/12/04 00:23:05;1572529.00;5.24;2780.35;147332.00;0.49;255.21;;;;;5.90;1.00;;;;;;2275829;61;2008;-85
2023/12/04 00:25:31;681510.00;2.27;1175.19;94840.00;0.32;164.66;;;;;5.90;1.00;;;;;;2276061;61;1299;-86
2023/12/04 00:27:58;559954.00;1.87;965.12;97964.00;0.33;170.06;;;;;5.90;1.00;;;;;;2276139;60;1877;-86
2023/12/04 00:30:26;437390.00;1.46;754.09;0.00;0.00;0.62;;;;;6.20;1.00;;;;;;2276336;60;1068;-86
2023/12/04 00:32:53;183194.00;0.61;316.99;0.00;0.00;0.62;;;;;6.20;1.00;;;;;;2276305;60;1025;-85
2023/12/04 00:35:20;148760.00;0.50;257.67;0.00;0.00;0.62;;;;;5.80;1.00;;;;;;2276280;60;1284;-85
2023/12/04 00:37:47;169622.00;0.57;293.62;0.00;0.00;0.62;;;;;5.50;1.00;;;;;;2276276;60;1027;-85
2023/12/04 00:40:14;185357.00;0.62;320.71;0.00;0.00;0.62;;;;;4.90;1.00;;;;;;2276262;60;1102;-85
2023/12/04 00:42:41;691469.00;2.30;1192.45;7377.00;0.02;13.40;;;;;5.10;1.00;;;;;;2276206;60;2145;-87
2023/12/04 00:45:09;1647742.00;5.49;2924.33;116680.00;0.39;202.36;;;;;4.80;1.00;;;;;;2276293;60;907;-84
2023/12/04 00:47:37;462527.00;1.54;797.33;79960.00;0.27;138.97;;;;;4.70;1.00;;;;;;2276277;60;1277;-85
2023/12/04 00:50:04;404796.00;1.35;698.05;0.00;0.00;0.62;;;;;4.90;1.00;;;;;;2276226;60;1003;-86
2023/12/04 00:52:31;332032.00;1.11;572.98;0.00;0.00;0.62;;;;;4.20;1.00;;;;;;2276261;60;1038;-85
2023/12/04 00:54:58;256242.00;0.85;442.69;0.00;0.00;0.62;;;;;3.40;1.00;;;;;;2276252;60;1073;-85
2023/12/04 00:57:25;644561.00;2.15;1111.23;21108.00;0.07;37.19;;;;;2.30;1.00;;;;;;2276249;60;1412;-86
2023/12/04 00:59:52;394129.00;1.31;679.71;0.00;0.00;0.62;;;;;1.60;1.00;;;;;;2276144;60;1081;-85
2023/12/04 01:02:18;252293.00;0.84;435.89;0.00;0.00;0.62;;;;;2.20;1.00;;;;;;2276214;60;1104;-86
2023/12/04 01:04:47;1666682.00;5.56;2960.87;16753.00;0.06;29.65;;;;;2.40;1.00;;;;;;2276215;60;2017;-84
2023/12/04 01:07:13;1633684.00;5.45;2897.29;107162.00;0.36;185.93;;;;;2.80;1.00;;;;;;2276166;60;1277;-85
2023/12/04 01:09:40;2626872.00;8.76;5001.00;264130.00;0.88;456.25;;;;;3.50;1.00;;;;;;2276154;60;1115;-84
2023/12/04 01:12:07;941385.00;3.14;1628.92;139298.00;0.46;241.36;;;;;3.70;1.00;;;;;;2276204;60;1106;-85
2023/12/04 01:14:34;246418.00;0.82;425.79;0.00;0.00;0.62;;;;;4.00;1.00;;;;;;2276232;60;1032;-84
2023/12/04 01:17:01;117120160.00;390.40;65075992.00;116791184.00;389.30;64528680.00;;;;;4.10;1.00;;;;;;2276117;60;1401;-84
2023/12/04 01:19:28;335125.00;1.12;578.29;0.00;0.00;0.62;;;;;4.20;1.00;;;;;;2276214;60;1071;-84
2023/12/04 01:21:56;350215.00;1.17;604.23;0.00;0.00;0.62;;;;;4.20;1.00;;;;;;2275828;60;1103;-84
2023/12/04 01:24:23;715617.00;2.39;1234.33;0.00;0.00;0.62;;;;;3.40;1.00;;;;;;2276046;60;2000;-85
2023/12/04 01:26:49;1362468.00;4.54;2386.89;82619.00;0.28;143.56;;;;;2.10;1.00;;;;;;2275991;60;1699;-86
2023/12/04 01:29:16;1385445.00;4.62;2429.36;93107.00;0.31;161.67;;;;;0.80;1.00;;;;;;2276110;61;1071;-86
2023/12/04 01:31:43;1767705.00;5.89;3157.75;44937.00;0.15;78.43;;;;;-0.10;1.00;;;;;;2276073;61;1170;-87
2023/12/04 01:34:10;2095528.00;6.99;3822.36;55311.00;0.18;96.37;;;;;-0.30;1.00;;;;;;2276017;61;1882;-86
2023/12/04 01:36:40;2060050.00;6.87;3748.36;98958.00;0.33;171.77;;;;;-0.90;1.00;;;;;;2276047;61;1288;-85
2023/12/04 01:39:09;1247760.00;4.16;2176.81;112778.00;0.38;195.62;;;;;-0.80;1.00;;;;;;2275936;61;1735;-86
2023/12/04 01:41:35;1005222.00;3.35;1741.72;103041.00;0.34;178.82;;;;;-1.00;1.00;;;;;;2276127;61;1025;-85
2023/12/04 01:44:02;739709.00;2.47;1276.17;102537.00;0.34;177.95;;;;;-0.90;1.00;;;;;;2276047;61;2010;-86
2023/12/04 01:46:30;557142.00;1.86;960.27;0.00;0.00;0.62;;;;;-1.20;1.00;;;;;;2276027;61;1368;-85
2023/12/04 01:48:57;544254.00;1.81;938.05;0.00;0.00;0.62;;;;;-1.00;1.00;;;;;;2276121;61;1070;-86
2023/12/04 01:51:25;587815.00;1.96;1013.19;0.00;0.00;0.62;;;;;-0.40;1.00;;;;;;2276084;61;1062;-87
2023/12/04 01:53:53;405511.00;1.35;699.28;0.00;0.00;0.62;;;;;-0.10;1.00;;;;;;2276040;61;1153;-86
2023/12/04 01:56:22;400052.00;1.33;689.89;0.00;0.00;0.62;;;;;-0.70;1.00;;;;;;2276002;61;1372;-87
2023/12/04 01:58:49;426434.00;1.42;735.25;0.00;0.00;0.62;;;;;-1.30;1.00;;;;;;2275992;61;1014;-86
2023/12/04 02:01:16;242147.00;0.81;418.44;0.00;0.00;0.62;;;;;-1.40;1.00;;;;;;2275987;61;1017;-86
2023/12/04 02:03:43;614189.00;2.05;1058.73;29438.00;0.10;51.61;;;;;-1.50;1.00;;;;;;2275993;61;2006;-86
2023/12/04 02:06:12;1255790.00;4.19;2191.42;49110.00;0.16;85.65;;;;;-1.40;1.00;;;;;;2275928;61;1709;-86
2023/12/04 02:08:41;1903376.00;6.34;3427.77;80107.00;0.27;139.22;;;;;-1.40;1.00;;;;;;2276096;61;1007;-86
2023/12/04 02:11:09;2313726.00;7.71;4289.67;178523.00;0.60;308.95;;;;;-1.30;1.00;;;;;;2276089;61;1071;-86
2023/12/04 02:13:38;1791794.00;5.97;3205.21;165873.00;0.55;287.16;;;;;-1.60;1.00;;;;;;2275980;61;925;-86
2023/12/04 02:16:10;797278.00;2.66;1376.38;101298.00;0.34;175.81;;;;;-1.30;1.00;;;;;;2275915;61;1313;-85
2023/12/04 02:18:37;619172.00;2.06;1067.34;0.00;0.00;0.62;;;;;-0.80;1.00;;;;;;2275961;61;1079;-87
2023/12/04 02:21:04;1016504.00;3.39;1761.72;33530.00;0.11;58.69;;;;;-0.60;1.00;;;;;;2275818;61;1018;-85
2023/12/04 02:23:31;330492.00;1.10;570.33;0.00;0.00;0.62;;;;;-0.60;1.00;;;;;;2275892;61;1996;-86
2023/12/04 02:26:03;599524.00;2.00;1033.40;0.00;0.00;0.62;;;;;-1.00;1.00;;;;;;2275755;61;1373;-87
2023/12/04 02:28:35;1416171.00;4.72;2486.35;127959.00;0.43;221.81;;;;;-0.90;1.00;;;;;;2275729;61;1053;-86
2023/12/04 02:31:04;547903.00;1.83;944.34;0.00;0.00;0.62;;;;;-1.00;1.00;;;;;;2275871;61;1298;-86
2023/12/04 02:33:34;659500.00;2.20;1137.08;0.00;0.00;0.62;;;;;-0.60;1.00;;;;;;2275782;61;966;-87
2023/12/04 02:36:03;1521060.00;5.07;2682.81;45211.00;0.15;78.90;;;;;-0.70;1.00;;;;;;2275556;61;1350;-89
2023/12/04 02:38:30;1789617.00;5.97;3200.91;66781.00;0.22;116.20;;;;;-1.40;1.00;;;;;;2275614;61;1029;-86
2023/12/04 02:40:57;901650.00;3.01;1559.02;72233.00;0.24;125.62;;;;;-1.30;1.00;;;;;;2275773;61;1424;-86
2023/12/04 02:43:25;125921.00;0.42;218.29;0.00;0.00;0.62;;;;;-1.50;1.00;;;;;;2275623;61;2000;-86
2023/12/04 02:45:52;202123.00;0.67;349.58;0.00;0.00;0.62;;;;;-1.40;1.00;;;;;;2275588;61;1296;-86
2023/12/04 02:48:19;751778.00;2.51;1297.15;28994.00;0.10;50.84;;;;;-1.20;1.00;;;;;;2275811;61;1027;-86
2023/12/04 02:50:46;1345813.00;4.49;2356.20;37650.00;0.13;65.82;;;;;-1.10;1.00;;;;;;2275595;61;1105;-85
2023/12/04 02:53:13;117678464.00;392.26;66011904.00;12099.00;0.04;21.59;;;;;-1.00;1.00;;;;;;2275807;61;1047;-86
2023/12/04 02:55:39;1150144.00;3.83;2000.33;103810.00;0.35;180.15;;;;;-1.10;1.00;;;;;;2275518;61;1262;-86
2023/12/04 02:58:06;936006.00;3.12;1619.45;164254.00;0.55;284.37;;;;;-1.30;1.00;;;;;;2275634;61;1055;-87
2023/12/04 03:00:35;1088310.00;3.63;1889.53;104140.00;0.35;180.72;;;;;-1.40;1.00;;;;;;2275649;61;1152;-85
2023/12/04 03:03:01;928290.00;3.09;1605.86;98056.00;0.33;170.22;;;;;-1.70;1.00;;;;;;2275467;61;1075;-86
2023/12/04 03:05:28;866346.00;2.89;1497.09;132167.00;0.44;229.07;;;;;-1.90;1.00;;;;;;2275432;61;1350;-86
2023/12/04 03:07:55;731019.00;2.44;1261.07;24363.00;0.08;42.82;;;;;-1.90;1.00;;;;;;2275546;61;1693;-86
2023/12/04 03:10:22;644227.00;2.15;1110.65;0.00;0.00;0.62;;;;;-2.30;1.00;;;;;;2275529;61;1098;-86
2023/12/04 03:12:49;1784333.00;5.95;3190.48;92324.00;0.31;160.32;;;;;-2.10;1.00;;;;;;2275509;61;1599;-86
2023/12/04 03:15:15;526759.00;1.76;907.91;0.00;0.00;0.62;;;;;-2.00;1.00;;;;;;2275681;61;1058;-86
2023/12/04 03:17:44;524992.00;1.75;904.86;0.00;0.00;0.62;;;;;-1.90;1.00;;;;;;2275623;61;1336;-86
2023/12/04 03:20:11;595993.00;1.99;1027.30;12098.00;0.04;21.58;;;;;-1.90;1.00;;;;;;2275305;61;1090;-87
2023/12/04 03:22:39;1669003.00;5.56;2965.35;39853.00;0.13;69.63;;;;;-1.80;1.00;;;;;;2275569;61;1044;-87
2023/12/04 03:25:06;1003987.00;3.35;1739.53;23240.00;0.08;40.88;;;;;-1.70;1.00;;;;;;2275266;61;2004;-86
2023/12/04 03:27:33;775602.00;2.59;1338.61;102044.00;0.34;177.10;;;;;-1.90;1.00;;;;;;2275652;61;1262;-85
2023/12/04 03:30:00;940085.00;3.13;1626.63;183.00;0.00;0.94;;;;;-1.90;1.00;;;;;;2275206;61;1083;-86
2023/12/04 03:32:27;599996.00;2.00;1034.21;2656.00;0.01;5.22;;;;;-1.50;1.00;;;;;;2275377;61;1089;-87
2023/12/04 03:34:55;625669.00;2.09;1078.56;6418.00;0.02;11.74;;;;;-1.60;1.00;;;;;;2275481;61;1112;-86
2023/12/04 03:37:22;1354301.00;4.51;2371.83;45017.00;0.15;78.57;;;;;-1.40;1.00;;;;;;2275531;61;1382;-87
2023/12/04 03:39:49;1076433.00;3.59;1868.33;57988.00;0.19;101.00;;;;;-1.30;1.00;;;;;;2275251;61;997;-86
2023/12/04 03:42:16;2777572.00;9.26;5362.36;43997.00;0.15;76.80;;;;;-1.50;1.00;;;;;;2275489;61;1807;-86
2023/12/04 03:44:42;1649324.00;5.50;2927.38;29025.00;0.10;50.90;;;;;-1.60;1.00;;;;;;2275704;61;1926;-85
2023/12/04 03:47:09;945546.00;3.15;1636.26;119439.00;0.40;207.11;;;;;-1.40;1.00;;;;;;2275722;61;1261;-86
2023/12/04 03:49:36;589629.00;1.97;1016.32;0.00;0.00;0.62;;;;;-1.20;1.00;;;;;;2275695;61;1578;-86
2023/12/04 03:52:05;496548.00;1.66;855.88;0.00;0.00;0.62;;;;;-1.50;1.00;;;;;;2275638;61;956;-87
2023/12/04 03:54:32;493378.00;1.64;850.42;0.00;0.00;0.62;;;;;-1.70;1.00;;;;;;2275667;61;1079;-89
2023/12/04 03:56:58;1128013.00;3.76;1960.59;0.00;0.00;0.62;;;;;-1.50;1.00;;;;;;2275584;61;1295;-87
2023/12/04 03:59:25;1002400.00;3.34;1736.72;105282.00;0.35;182.69;;;;;-1.50;1.00;;;;;;2275756;61;1079;-85
2023/12/04 04:01:52;117269544.00;390.90;65325524.00;0.00;0.00;0.62;;;;;-1.50;1.00;;;;;;2275881;61;1086;-86
2023/12/04 04:04:19;385362.00;1.28;664.64;0.00;0.00;0.62;;;;;-1.60;1.00;;;;;;2272315;61;1996;-86
2023/12/04 04:06:46;571732.00;1.91;985.43;0.00;0.00;0.62;;;;;-1.30;1.00;;;;;;2275950;61;1351;-85
2023/12/04 04:09:14;425999.00;1.42;734.51;0.00;0.00;0.62;;;;;-1.70;1.00;;;;;;2276007;61;1019;-85
2023/12/04 04:11:41;376121.00;1.25;648.76;0.00;0.00;0.62;;;;;-1.70;1.00;;;;;;2275957;61;1122;-85
2023/12/04 04:14:08;460393.00;1.53;793.66;17422.00;0.06;30.81;;;;;-1.70;1.00;;;;;;2275975;61;996;-86
2023/12/04 04:16:35;1835411.00;6.12;3291.66;45716.00;0.15;79.78;;;;;-1.20;1.00;;;;;;2275795;61;1338;-86
2023/12/04 04:19:01;868320.00;2.89;1500.55;90156.00;0.30;156.58;;;;;-1.40;1.00;;;;;;2275997;61;985;-86
2023/12/04 04:21:27;291888.00;0.97;503.98;0.00;0.00;0.62;;;;;-1.30;1.00;;;;;;2276444;61;1012;-86
2023/12/04 04:23:54;280011.00;0.93;483.56;0.00;0.00;0.62;;;;;-1.40;1.00;;;;;;2276664;61;1999;-86
2023/12/04 04:26:22;331790.00;1.11;572.56;0.00;0.00;0.62;;;;;-1.60;1.00;;;;;;2276592;61;1253;-86
2023/12/04 04:28:49;350367.00;1.17;604.49;0.00;0.00;0.62;;;;;-1.30;1.00;;;;;;2276613;61;1051;-85
2023/12/04 04:31:18;480867.00;1.60;828.89;28730.00;0.10;50.38;;;;;-1.40;1.00;;;;;;2276098;61;1057;-85
2023/12/04 04:33:45;685081.00;2.28;1181.38;0.00;0.00;0.62;;;;;-1.50;1.00;;;;;;2275732;61;1098;-86
2023/12/04 04:36:12;684156.00;2.28;1179.77;8850.00;0.03;15.96;;;;;-1.80;1.00;;;;;;2276046;61;1437;-85
2023/12/04 04:38:40;951187.00;3.17;1646.20;97269.00;0.32;168.86;;;;;-1.70;1.00;;;;;;2276125;61;979;-85
2023/12/04 04:41:07;1238481.00;4.13;2159.95;104451.00;0.35;181.25;;;;;-1.70;1.00;;;;;;2276202;61;1110;-86
2023/12/04 04:43:36;877774.00;2.93;1517.12;99245.00;0.33;172.27;;;;;-1.60;1.00;;;;;;2276075;61;1957;-86
2023/12/04 04:46:03;651805.00;2.17;1123.76;136484.00;0.45;236.51;;;;;-1.30;1.00;;;;;;2276177;61;1358;-87
2023/12/04 04:48:29;580902.00;1.94;1001.26;24162.00;0.08;42.48;;;;;-0.80;1.00;;;;;;2276125;61;1528;-86
2023/12/04 04:50:56;383603.00;1.28;661.62;0.00;0.00;0.62;;;;;-0.90;1.00;;;;;;2276165;61;1051;-85
2023/12/04 04:53:23;486953.00;1.62;839.36;3466.00;0.01;6.63;;;;;-1.10;1.00;;;;;;2276119;60;1970;-86
2023/12/04 04:55:50;465818.00;1.55;802.99;9220.00;0.03;16.60;;;;;-1.30;1.00;;;;;;2276436;61;2486;-86
2023/12/04 04:58:17;363956.00;1.21;627.85;0.00;0.00;0.62;;;;;-1.70;1.00;;;;;;2276459;61;1122;-86
2023/12/04 05:00:46;1043091.00;3.48;1808.94;221.00;0.00;1.00;;;;;-1.90;1.00;;;;;;2276135;61;981;-86
2023/12/04 05:03:13;1218717.00;4.06;2124.10;133482.00;0.44;231.33;;;;;-1.80;1.00;;;;;;2276006;61;1099;-87
2023/12/04 05:05:40;854296.00;2.85;1475.99;101916.00;0.34;176.88;;;;;-1.00;1.00;;;;;;2275998;61;2020;-86
2023/12/04 05:08:07;304780.00;1.02;526.14;0.00;0.00;0.62;;;;;-0.90;1.00;;;;;;2275946;61;1026;-85
2023/12/04 05:10:34;190589.00;0.64;329.72;0.00;0.00;0.62;;;;;-1.30;1.00;;;;;;2275946;61;1099;-86
2023/12/04 05:13:01;265394.00;0.88;458.42;0.00;0.00;0.62;;;;;-1.50;1.00;;;;;;2276035;61;986;-86
2023/12/04 05:15:28;222477.00;0.74;384.61;0.00;0.00;0.62;;;;;-1.50;1.00;;;;;;2275974;60;1831;-86
2023/12/04 05:17:56;436838.00;1.46;753.14;0.00;0.00;0.62;;;;;-1.50;1.00;;;;;;2276399;61;1035;-87
2023/12/04 05:20:23;1199172.00;4.00;2088.72;32244.00;0.11;56.47;;;;;-1.20;1.00;;;;;;2276450;61;2198;-84
2023/12/04 05:22:52;1728806.00;5.76;3081.53;142711.00;0.48;247.24;;;;;-1.30;1.00;;;;;;2276518;61;1135;-87
2023/12/04 05:25:19;741248.00;2.47;1278.84;102175.00;0.34;177.33;;;;;-1.30;1.00;;;;;;2276410;61;1931;-86
2023/12/04 05:27:46;347935.00;1.16;600.31;0.00;0.00;0.62;;;;;-1.20;1.00;;;;;;2276416;61;1418;-86
2023/12/04 05:30:13;332674.00;1.11;574.08;0.00;0.00;0.62;;;;;-1.30;1.00;;;;;;2276290;61;1079;-86
2023/12/04 05:32:40;338148.00;1.13;583.49;0.00;0.00;0.62;;;;;-1.20;1.00;;;;;;2276185;61;1024;-86
2023/12/04 05:35:09;346207.00;1.15;597.34;0.00;0.00;0.62;;;;;-1.00;1.00;;;;;;2276393;61;1119;-86
2023/12/04 05:37:36;796331.00;2.65;1374.73;0.00;0.00;0.62;;;;;-0.90;1.00;;;;;;2276439;61;1372;-86
2023/12/04 05:40:04;831801.00;2.77;1436.64;15056.00;0.05;26.71;;;;;-1.40;1.00;;;;;;2276322;61;1058;-86
2023/12/04 05:42:31;339885.00;1.13;586.48;0.00;0.00;0.62;;;;;-1.20;1.00;;;;;;2276388;61;1039;-87
2023/12/04 05:44:57;463921.00;1.55;799.73;0.00;0.00;0.62;;;;;-1.00;1.00;;;;;;2276360;61;1998;-86
2023/12/04 05:47:24;933775.00;3.11;1615.52;0.00;0.00;0.62;;;;;-0.90;1.00;;;;;;2276021;61;1260;-86
2023/12/04 05:49:51;1007858.00;3.36;1746.39;129414.00;0.43;224.32;;;;;-1.00;1.00;;;;;;2276003;61;915;-85
2023/12/04 05:52:19;1152067.00;3.84;2003.79;110826.00;0.37;192.26;;;;;-1.00;1.00;;;;;;2276123;60;1414;-86
2023/12/04 05:54:48;625182.00;2.08;1077.72;100887.00;0.34;175.10;;;;;-1.00;1.00;;;;;;2281266;55;3757;-86
2023/12/04 05:57:16;166818.00;0.56;288.79;0.00;0.00;0.62;;;;;-0.80;1.00;;;;;;2276853;61;1358;-87
2023/12/04 06:02:16;1097632.00;3.66;1906.19;31404.00;0.10;55.01;;;;;-0.70;1.00;;;;;;2286397;60;1236;-86
2023/12/04 06:04:43;855130.00;2.85;1477.45;129232.00;0.43;224.00;;;;;-0.40;1.00;;;;;;2284324;60;1918;-87
2023/12/04 06:07:10;185771.00;0.62;321.43;0.00;0.00;0.62;;;;;-0.30;1.00;;;;;;2280970;61;1357;-86
2023/12/04 06:09:38;703188.00;2.34;1212.77;0.00;0.00;0.62;;;;;-0.10;1.00;;;;;;2280381;61;1119;-86
2023/12/04 06:12:08;1164888.00;3.88;2026.86;36930.00;0.12;64.58;;;;;-0.20;1.00;;;;;;2280429;61;1104;-86
2023/12/04 06:14:35;442101.00;1.47;762.20;0.00;0.00;0.62;;;;;-0.40;1.00;;;;;;2280447;61;1000;-88
2023/12/04 06:19:35;2179874.00;7.27;4000.45;92808.00;0.31;161.16;;;;;-0.20;1.00;;;;;;2289503;60;1561;-86
2023/12/04 06:22:01;675428.00;2.25;1164.65;51868.00;0.17;90.42;;;;;-0.20;1.00;;;;;;2288795;56;3763;-88
2023/12/04 06:24:32;1242682.00;4.14;2167.58;0.00;0.00;0.62;;;;;0.10;1.00;;;;;;2280355;60;1919;-88
2023/12/04 06:27:01;121020984.00;403.40;71803648.00;0.00;0.00;0.62;;;;;0.60;1.00;;;;;;2277200;60;1313;-86
2023/12/04 06:29:29;238494.00;0.79;412.16;0.00;0.00;0.62;;;;;0.40;1.00;;;;;;2276214;60;1034;-87
2023/12/04 06:31:56;831512.00;2.77;1436.14;7598.00;0.03;13.79;;;;;0.30;1.00;;;;;;2276168;60;1070;-86
2023/12/04 06:34:24;545363.00;1.82;939.97;122109.00;0.41;211.72;;;;;0.80;1.00;;;;;;2275881;60;1047;-87
2023/12/04 06:36:51;2000089.00;6.67;3624.51;161594.00;0.54;279.79;;;;;0.40;1.00;;;;;;2279825;60;1433;-86
2023/12/04 06:39:19;294117.00;0.98;507.81;0.00;0.00;0.62;;;;;0.90;1.00;;;;;;2280339;60;1087;-86
2023/12/04 06:41:48;199205.00;0.66;344.56;0.00;0.00;0.62;;;;;0.80;1.00;;;;;;2276841;60;1068;-86
2023/12/04 06:44:16;242881.00;0.81;419.71;0.00;0.00;0.62;;;;;0.70;1.00;;;;;;2280133;60;2254;-85
2023/12/04 06:46:49;124489.00;0.41;215.83;0.00;0.00;0.62;;;;;1.30;1.00;;;;;;2280241;60;1275;-86
2023/12/04 06:49:19;768353.00;2.56;1325.99;12374.00;0.04;22.06;;;;;1.50;1.00;;;;;;2279020;60;1289;-85
2023/12/04 06:51:46;356096.00;1.19;614.34;0.00;0.00;0.62;;;;;1.20;1.00;;;;;;2275671;61;1110;-85
2023/12/04 06:54:13;342461.00;1.14;590.90;6270.00;0.02;11.49;;;;;1.10;1.00;;;;;;2275894;61;1116;-85
2023/12/04 06:56:40;128143.00;0.43;222.13;0.00;0.00;0.62;;;;;1.10;1.00;;;;;;2275544;61;2531;-84
2023/12/04 06:59:07;361301.00;1.20;623.28;13861.00;0.05;24.64;;;;;0.80;1.00;;;;;;2275372;61;1514;-85
2023/12/04 07:01:35;417462.00;1.39;719.83;5200.00;0.02;9.63;;;;;1.00;1.00;;;;;;2275469;61;1075;-87
2023/12/04 07:04:09;459882.00;1.53;792.78;5533.00;0.02;10.21;;;;;1.40;1.00;;;;;;2275393;61;1111;-84
2023/12/04 07:06:36;491561.00;1.64;847.30;16094.00;0.05;28.51;;;;;2.20;1.00;;;;;;2275479;60;1940;-85
2023/12/04 07:09:03;1656662.00;5.52;2941.53;43212.00;0.14;75.45;;;;;2.00;1.00;;;;;;2275865;60;1204;-85
2023/12/04 07:11:30;1027045.00;3.42;1780.43;101823.00;0.34;176.72;;;;;1.60;1.00;;;;;;2275738;60;1079;-85
2023/12/04 07:13:57;316311.00;1.05;545.96;0.00;0.00;0.62;;;;;1.10;1.00;;;;;;2275805;60;1090;-86
2023/12/04 07:16:23;532703.00;1.78;918.15;0.00;0.00;0.62;;;;;1.20;1.00;;;;;;2275799;60;1352;-86
2023/12/04 07:18:52;596662.00;1.99;1028.46;14509.00;0.05;25.76;;;;;1.10;1.00;;;;;;2275759;60;1815;-87
2023/12/04 07:21:18;2099604.00;7.00;3830.89;123750.00;0.41;214.55;;;;;1.50;1.00;;;;;;2276548;60;1869;-86
2023/12/04 07:23:45;878651.00;2.93;1518.65;100409.00;0.33;174.28;;;;;1.50;1.00;;;;;;2277917;60;1743;-86
2023/12/04 07:26:12;841889.00;2.81;1454.28;70673.00;0.24;122.92;;;;;1.50;1.00;;;;;;2275565;60;2006;-86
2023/12/04 07:28:39;973302.00;3.24;1685.24;136630.00;0.46;236.76;;;;;1.60;1.00;;;;;;2278490;60;1259;-86
2023/12/04 07:31:06;464070.00;1.55;799.99;0.00;0.00;0.62;;;;;1.60;1.00;;;;;;2279834;60;1099;-85
2023/12/04 07:33:33;761134.00;2.54;1313.42;7919.00;0.03;14.34;;;;;2.20;1.00;;;;;;2279837;60;1084;-86
2023/12/04 07:36:02;414880.00;1.38;715.39;3230.00;0.01;6.22;;;;;2.50;1.00;;;;;;2279089;60;1348;-84
2023/12/04 07:38:29;513041.00;1.71;884.28;0.00;0.00;0.62;;;;;2.80;1.00;;;;;;2279200;60;1310;-85
2023/12/04 07:40:56;1737355.00;5.79;3098.24;176233.00;0.59;305.00;;;;;2.10;1.00;;;;;;2279466;60;1073;-85
2023/12/04 07:43:23;2975667.00;9.92;5858.03;196101.00;0.65;339.21;;;;;2.10;1.00;;;;;;2279489;60;1394;-87
2023/12/04 07:45:50;118790008.00;395.97;67901928.00;250172.00;0.83;432.25;;;;;1.70;1.00;;;;;;2278192;60;1917;-87
2023/12/04 07:50:47;1160215.00;3.87;2018.45;3018.00;0.01;5.85;;;;;1.30;1.00;;;;;;2280996;60;1330;-85
2023/12/04 07:53:15;458113.00;1.53;789.74;104036.00;0.35;180.54;;;;;1.20;1.00;;;;;;2279996;60;1117;-86
2023/12/04 07:55:43;391502.00;1.31;675.20;61802.00;0.21;107.59;;;;;0.90;1.00;;;;;;2279491;60;1355;-86
2023/12/04 07:58:10;245628.00;0.82;424.43;0.00;0.00;0.62;;;;;1.70;1.00;;;;;;2276472;61;1059;-85
2023/12/04 08:00:37;995883.00;3.32;1725.18;73713.00;0.25;128.18;;;;;2.60;1.00;;;;;;2276489;61;1127;-86
2023/12/04 08:03:04;904712.00;3.02;1564.40;117128.00;0.39;203.13;;;;;2.70;1.00;;;;;;2276233;61;1638;-85
2023/12/04 08:05:31;336887.00;1.12;581.32;0.00;0.00;0.62;;;;;2.90;1.00;;;;;;2276237;61;1998;-86
2023/12/04 08:07:59;270071.00;0.90;466.47;0.00;0.00;0.62;;;;;2.40;1.00;;;;;;2276407;61;1079;-86
2023/12/04 08:10:27;1040477.00;3.47;1804.29;0.00;0.00;0.62;;;;;2.10;1.00;;;;;;2276352;61;1117;-86
2023/12/04 08:12:54;659156.00;2.20;1136.48;87152.00;0.29;151.39;;;;;2.60;1.00;;;;;;2276419;61;1205;-84
2023/12/04 08:15:20;300091.00;1.00;518.08;0.00;0.00;0.62;;;;;2.90;1.00;;;;;;2276282;61;1102;-86
2023/12/04 08:17:47;699255.00;2.33;1205.95;0.00;0.00;0.62;;;;;2.50;1.00;;;;;;2276523;61;1121;-86
2023/12/04 08:20:14;974073.00;3.25;1686.61;8334.00;0.03;15.06;;;;;2.10;1.00;;;;;;2276463;61;1053;-85
2023/12/04 08:22:41;428187.00;1.43;738.27;0.00;0.00;0.62;;;;;1.60;1.00;;;;;;2276475;61;1298;-88
2023/12/04 08:25:09;402012.00;1.34;693.26;0.00;0.00;0.62;;;;;1.80;1.00;;;;;;2276351;61;1996;-85
2023/12/04 08:27:38;428038.00;1.43;738.01;4131.00;0.01;7.78;;;;;1.60;1.00;;;;;;2276346;61;1406;-85
2023/12/04 08:30:06;622678.00;2.08;1073.39;0.00;0.00;0.62;;;;;2.30;1.00;;;;;;2276650;61;2160;-84
2023/12/04 08:32:32;823901.00;2.75;1422.84;5016.00;0.02;9.31;;;;;2.70;1.00;;;;;;2276407;61;1610;-85
2023/12/04 08:34:59;230504.00;0.77;398.42;0.00;0.00;0.62;;;;;2.50;1.00;;;;;;2276567;61;1763;-85
2023/12/04 08:37:27;528346.00;1.76;910.64;6786.00;0.02;12.38;;;;;3.00;1.00;;;;;;2276526;61;1766;-85
2023/12/04 08:39:56;868301.00;2.89;1500.51;0.00;0.00;0.62;;;;;2.60;1.00;;;;;;2276488;61;2279;-86
2023/12/04 08:42:23;849790.00;2.83;1468.10;87730.00;0.29;152.39;;;;;2.80;1.00;;;;;;2276510;61;1028;-84
2023/12/04 08:44:52;360084.00;1.20;621.19;0.00;0.00;0.62;;;;;3.10;1.00;;;;;;2276444;61;2001;-87
2023/12/04 08:47:19;402265.00;1.34;693.70;4139.00;0.01;7.79;;;;;3.30;1.00;;;;;;2276635;61;1393;-84
2023/12/04 08:49:46;909167.00;3.03;1572.23;27755.00;0.09;48.70;;;;;3.50;1.00;;;;;;2276375;61;1035;-85
2023/12/04 08:52:13;789580.00;2.63;1362.96;82847.00;0.28;143.95;;;;;4.30;1.00;;;;;;2276384;61;1597;-86
2023/12/04 08:54:41;579889.00;1.93;999.51;0.00;0.00;0.62;;;;;4.60;1.00;;;;;;2276381;61;1841;-84
2023/12/04 08:57:08;464966.00;1.55;801.53;0.00;0.00;0.62;;;;;4.70;1.00;;;;;;2276465;61;1651;-86
2023/12/04 08:59:36;207535.00;0.69;358.89;0.00;0.00;0.62;;;;;4.60;1.00;;;;;;2278676;60;1843;-85
2023/12/04 09:02:04;1424210.00;4.75;2501.30;51981.00;0.17;90.61;;;;;5.10;1.00;;;;;;2276770;60;1818;-86
2023/12/04 09:04:32;482605.00;1.61;831.88;0.00;0.00;0.62;;;;;5.50;1.00;;;;;;2275903;60;1622;-86
2023/12/04 09:06:59;912770.00;3.04;1578.56;98923.00;0.33;171.71;;;;;5.70;1.00;;;;;;2276229;60;2005;-86
2023/12/04 09:09:26;225778.00;0.75;390.29;0.00;0.00;0.62;;;;;5.90;1.00;;;;;;2276450;60;1061;-86
2023/12/04 09:11:53;293980.00;0.98;507.57;0.00;0.00;0.62;;;;;6.10;1.00;;;;;;2276547;60;1030;-86
2023/12/04 09:14:19;1301409.00;4.34;2274.68;48639.00;0.16;84.83;;;;;6.30;1.00;;;;;;2276341;60;1047;-87
2023/12/04 09:16:46;511514.00;1.71;881.65;4444.00;0.01;8.32;;;;;6.20;1.00;;;;;;2276471;60;1364;-85
2023/12/04 09:19:14;197277.00;0.66;341.24;0.00;0.00;0.62;;;;;5.00;1.00;;;;;;2276451;60;1026;-86
2023/12/04 09:21:42;749424.00;2.50;1293.06;4294.00;0.01;8.06;;;;;5.10;1.00;;;;;;2276418;60;1063;-85
2023/12/04 09:24:09;1048375.00;3.49;1818.34;120894.00;0.40;209.62;;;;;5.10;1.00;;;;;;2276332;60;1067;-87
2023/12/04 09:26:36;261450.00;0.87;451.64;0.00;0.00;0.62;;;;;5.30;1.00;;;;;;2276145;60;1919;-85
2023/12/04 09:29:03;139009.00;0.46;240.86;0.00;0.00;0.62;;;;;5.40;1.00;;;;;;2276426;60;1044;-85
2023/12/04 09:31:30;839465.00;2.80;1450.04;0.00;0.00;0.62;;;;;5.70;1.00;;;;;;2276309;60;932;-85
2023/12/04 09:33:57;667531.00;2.23;1150.98;143460.00;0.48;248.54;;;;;5.60;1.00;;;;;;2276461;60;1139;-86
2023/12/04 09:36:25;408307.00;1.36;704.09;0.00;0.00;0.62;;;;;5.20;1.00;;;;;;2276287;60;1265;-86
2023/12/04 09:38:52;652450.00;2.17;1124.88;32759.00;0.11;57.36;;;;;4.80;1.00;;;;;;2276350;60;1076;-85
2023/12/04 09:41:20;784662.00;2.62;1354.39;30161.00;0.10;52.86;;;;;4.60;1.00;;;;;;2276361;60;1585;-87
2023/12/04 09:43:48;273956.00;0.91;473.15;0.00;0.00;0.62;;;;;5.40;1.00;;;;;;2276417;60;975;-86
2023/12/04 09:46:17;335478.00;1.12;578.90;5976.00;0.02;10.98;;;;;4.90;1.00;;;;;;2276208;60;2000;-86